sensor_id;sensor_type;location;lat;lon;timestamp;P1;durP1;ratioP1;P2;durP2;ratioP2
22675;SDS011;12521;43.310;21.876;2023-09-18T00:00:12;10.0;;;8.0;;
22675;SDS011;12521;43.310;21.876;2023-09-18T00:04:49;10.0;;;9.0;;
22675;SDS011;12521;43.310;21.876;2023-09-18T00:09:26;10.0;;;9.0;;
22675;SDS011;12521;43.310;21.876;2023-09-18T00:14:02;9.0;;;8.0;;
22675;SDS011;12521;43.310;21.876;2023-09-18T00:18:38;9.0;;;8.0;;
22675;SDS011;12521;43.310;21.876;2023-09-18T00:23:14;8.0;;;8.0;;
22675;SDS011;12521;43.310;21.876;2023-09-18T00:27:51;8.0;;;8.0;;
22675;SDS011;12521;43.310;21.876;2023-09-18T00:32:27;9.0;;;8.0;;
22675;SDS011;12521;43.310;21.876;2023-09-18T00:37:04;9.0;;;8.0;;
22675;SDS011;12521;43.310;21.876;2023-09-18T00:41:40;10.0;;;7.0;;
22675;SDS011;12521;43.310;21.876;2023-09-18T00:46:17;10.0;;;7.0;;
22675;SDS011;12521;43.310;21.876;2023-09-18T00:50:54;10.0;;;7.0;;
22675;SDS011;12521;43.310;21.876;2023-09-18T00:55:33;10.0;;;7.0;;
22675;SDS011;12521;43.310;21.876;2023-09-18T01:00:15;10.0;;;7.0;;
22675;SDS011;12521;43.310;21.876;2023-09-18T01:04:53;10.0;;;7.0;;
22675;SDS011;12521;43.310;21.876;2023-09-18T01:09:31;10.0;;;7.0;;
22675;SDS011;12521;43.310;21.876;2023-09-18T01:14:19;10.0;;;8.0;;
22675;SDS011;12521;43.310;21.876;2023-09-18T01:19:39;10.0;;;8.0;;
22675;SDS011;12521;43.310;21.876;2023-09-18T01:24:20;11.0;;;8.0;;
22675;SDS011;12521;43.310;21.876;2023-09-18T01:28:57;11.0;;;8.0;;
22675;SDS011;12521;43.310;21.876;2023-09-18T01:33:34;11.0;;;8.0;;
22675;SDS011;12521;43.310;21.876;2023-09-18T01:38:17;11.0;;;8.0;;
22675;SDS011;12521;43.310;21.876;2023-09-18T01:42:55;11.0;;;7.0;;
22675;SDS011;12521;43.310;21.876;2023-09-18T01:47:32;11.0;;;7.0;;
22675;SDS011;12521;43.310;21.876;2023-09-18T01:52:10;10.0;;;7.0;;
22675;SDS011;12521;43.310;21.876;2023-09-18T01:56:47;10.0;;;7.0;;
22675;SDS011;12521;43.310;21.876;2023-09-18T02:01:24;10.0;;;7.0;;
22675;SDS011;12521;43.310;21.876;2023-09-18T02:06:01;10.0;;;7.0;;
22675;SDS011;12521;43.310;21.876;2023-09-18T02:10:38;10.0;;;7.0;;
22675;SDS011;12521;43.310;21.876;2023-09-18T02:15:15;10.0;;;6.0;;
22675;SDS011;12521;43.310;21.876;2023-09-18T02:19:51;10.0;;;6.0;;
22675;SDS011;12521;43.310;21.876;2023-09-18T02:24:28;9.0;;;6.0;;
22675;SDS011;12521;43.310;21.876;2023-09-18T02:29:08;9.0;;;6.0;;
22675;SDS011;12521;43.310;21.876;2023-09-18T02:33:45;8.0;;;6.0;;
22675;SDS011;12521;43.310;21.876;2023-09-18T02:38:23;8.0;;;6.0;;
22675;SDS011;12521;43.310;21.876;2023-09-18T02:42:59;8.0;;;7.0;;
22675;SDS011;12521;43.310;21.876;2023-09-18T02:47:35;8.0;;;7.0;;
22675;SDS011;12521;43.310;21.876;2023-09-18T02:52:11;8.0;;;6.0;;
22675;SDS011;12521;43.310;21.876;2023-09-18T02:56:47;8.0;;;6.0;;
22675;SDS011;12521;43.310;21.876;2023-09-18T03:01:24;7.0;;;6.0;;
22675;SDS011;12521;43.310;21.876;2023-09-18T03:06:01;7.0;;;6.0;;
22675;SDS011;12521;43.310;21.876;2023-09-18T03:10:42;7.0;;;6.0;;
22675;SDS011;12521;43.310;21.876;2023-09-18T03:15:20;6.0;;;6.0;;
22675;SDS011;12521;43.310;21.876;2023-09-18T03:19:56;6.0;;;6.0;;
22675;SDS011;12521;43.310;21.876;2023-09-18T03:24:33;6.0;;;6.0;;
22675;SDS011;12521;43.310;21.876;2023-09-18T03:29:09;6.0;;;6.0;;
22675;SDS011;12521;43.310;21.876;2023-09-18T03:33:46;9.0;;;7.0;;
22675;SDS011;12521;43.310;21.876;2023-09-18T03:38:22;9.0;;;7.0;;
22675;SDS011;12521;43.310;21.876;2023-09-18T03:43:00;12.0;;;8.0;;
22675;SDS011;12521;43.310;21.876;2023-09-18T03:47:38;12.0;;;8.0;;
22675;SDS011;12521;43.310;21.876;2023-09-18T03:52:17;11.0;;;8.0;;
22675;SDS011;12521;43.310;21.876;2023-09-18T03:56:54;11.0;;;8.0;;
22675;SDS011;12521;43.310;21.876;2023-09-18T04:01:30;10.0;;;9.0;;
22675;SDS011;12521;43.310;21.876;2023-09-18T04:06:07;10.0;;;9.0;;
22675;SDS011;12521;43.310;21.876;2023-09-18T04:10:43;10.0;;;9.0;;
22675;SDS011;12521;43.310;21.876;2023-09-18T04:15:22;12.0;;;10.0;;
22675;SDS011;12521;43.310;21.876;2023-09-18T04:19:59;12.0;;;10.0;;
22675;SDS011;12521;43.310;21.876;2023-09-18T04:24:35;13.0;;;10.0;;
22675;SDS011;12521;43.310;21.876;2023-09-18T04:29:12;13.0;;;10.0;;
22675;SDS011;12521;43.310;21.876;2023-09-18T04:33:49;12.0;;;9.0;;
22675;SDS011;12521;43.310;21.876;2023-09-18T04:38:26;12.0;;;9.0;;
22675;SDS011;12521;43.310;21.876;2023-09-18T04:43:03;10.0;;;8.0;;
22675;SDS011;12521;43.310;21.876;2023-09-18T04:47:39;10.0;;;8.0;;
22675;SDS011;12521;43.310;21.876;2023-09-18T04:52:16;10.0;;;8.0;;
22675;SDS011;12521;43.310;21.876;2023-09-18T04:56:53;10.0;;;8.0;;
22675;SDS011;12521;43.310;21.876;2023-09-18T05:01:29;10.0;;;9.0;;
22675;SDS011;12521;43.310;21.876;2023-09-18T05:06:06;10.0;;;9.0;;
22675;SDS011;12521;43.310;21.876;2023-09-18T05:10:42;10.0;;;9.0;;
22675;SDS011;12521;43.310;21.876;2023-09-18T05:15:18;10.0;;;9.0;;
22675;SDS011;12521;43.310;21.876;2023-09-18T05:19:54;10.0;;;9.0;;
22675;SDS011;12521;43.310;21.876;2023-09-18T05:24:31;10.0;;;9.0;;
22675;SDS011;12521;43.310;21.876;2023-09-18T05:29:07;10.0;;;9.0;;
22675;SDS011;12521;43.310;21.876;2023-09-18T05:33:43;11.0;;;9.0;;
22675;SDS011;12521;43.310;21.876;2023-09-18T05:38:19;11.0;;;9.0;;
22675;SDS011;12521;43.310;21.876;2023-09-18T05:42:56;12.0;;;9.0;;
22675;SDS011;12521;43.310;21.876;2023-09-18T05:47:34;12.0;;;9.0;;
22675;SDS011;12521;43.310;21.876;2023-09-18T05:52:11;11.0;;;9.0;;
22675;SDS011;12521;43.310;21.876;2023-09-18T05:56:47;11.0;;;9.0;;
22675;SDS011;12521;43.310;21.876;2023-09-18T06:01:24;10.0;;;9.0;;
22675;SDS011;12521;43.310;21.876;2023-09-18T06:06:00;10.0;;;9.0;;
22675;SDS011;12521;43.310;21.876;2023-09-18T06:10:37;10.0;;;9.0;;
22675;SDS011;12521;43.310;21.876;2023-09-18T06:15:13;10.0;;;9.0;;
22675;SDS011;12521;43.310;21.876;2023-09-18T06:19:50;10.0;;;9.0;;
22675;SDS011;12521;43.310;21.876;2023-09-18T06:24:27;11.0;;;9.0;;
22675;SDS011;12521;43.310;21.876;2023-09-18T06:29:04;11.0;;;9.0;;
22675;SDS011;12521;43.310;21.876;2023-09-18T06:33:40;12.0;;;9.0;;
22675;SDS011;12521;43.310;21.876;2023-09-18T06:38:17;12.0;;;9.0;;
22675;SDS011;12521;43.310;21.876;2023-09-18T06:42:58;12.0;;;9.0;;
22675;SDS011;12521;43.310;21.876;2023-09-18T06:47:35;12.0;;;9.0;;
22675;SDS011;12521;43.310;21.876;2023-09-18T06:52:12;12.0;;;10.0;;
22675;SDS011;12521;43.310;21.876;2023-09-18T06:56:48;12.0;;;10.0;;
22675;SDS011;12521;43.310;21.876;2023-09-18T07:01:25;13.0;;;11.0;;
22675;SDS011;12521;43.310;21.876;2023-09-18T07:06:02;13.0;;;11.0;;
22675;SDS011;12521;43.310;21.876;2023-09-18T07:10:40;13.0;;;11.0;;
22675;SDS011;12521;43.310;21.876;2023-09-18T07:15:17;14.0;;;12.0;;
22675;SDS011;12521;43.310;21.876;2023-09-18T07:19:54;14.0;;;12.0;;
22675;SDS011;12521;43.310;21.876;2023-09-18T07:24:31;15.0;;;13.0;;
22675;SDS011;12521;43.310;21.876;2023-09-18T07:29:08;15.0;;;13.0;;
22675;SDS011;12521;43.310;21.876;2023-09-18T07:33:44;20.0;;;14.0;;
22675;SDS011;12521;43.310;21.876;2023-09-18T07:38:21;20.0;;;14.0;;
22675;SDS011;12521;43.310;21.876;2023-09-18T07:42:58;24.0;;;16.0;;
22675;SDS011;12521;43.310;21.876;2023-09-18T07:47:35;24.0;;;16.0;;
22675;SDS011;12521;43.310;21.876;2023-09-18T07:52:12;20.0;;;15.0;;
22675;SDS011;12521;43.310;21.876;2023-09-18T07:56:49;20.0;;;15.0;;
22675;SDS011;12521;43.310;21.876;2023-09-18T08:01:25;15.0;;;14.0;;
22675;SDS011;12521;43.310;21.876;2023-09-18T08:06:02;15.0;;;14.0;;
22675;SDS011;12521;43.310;21.876;2023-09-18T08:10:39;15.0;;;14.0;;
22675;SDS011;12521;43.310;21.876;2023-09-18T08:15:15;14.0;;;12.0;;
22675;SDS011;12521;43.310;21.876;2023-09-18T08:19:52;14.0;;;12.0;;
22675;SDS011;12521;43.310;21.876;2023-09-18T08:24:29;13.0;;;11.0;;
22675;SDS011;12521;43.310;21.876;2023-09-18T08:29:05;13.0;;;11.0;;
22675;SDS011;12521;43.310;21.876;2023-09-18T08:33:42;13.0;;;12.0;;
22675;SDS011;12521;43.310;21.876;2023-09-18T08:38:19;13.0;;;12.0;;
22675;SDS011;12521;43.310;21.876;2023-09-18T08:42:56;13.0;;;12.0;;
22675;SDS011;12521;43.310;21.876;2023-09-18T08:47:39;13.0;;;12.0;;
22675;SDS011;12521;43.310;21.876;2023-09-18T08:52:17;14.0;;;12.0;;
22675;SDS011;12521;43.310;21.876;2023-09-18T08:56:57;14.0;;;12.0;;
22675;SDS011;12521;43.310;21.876;2023-09-18T09:01:34;14.0;;;11.0;;
22675;SDS011;12521;43.310;21.876;2023-09-18T09:06:12;14.0;;;11.0;;
22675;SDS011;12521;43.310;21.876;2023-09-18T09:10:49;14.0;;;11.0;;
22675;SDS011;12521;43.310;21.876;2023-09-18T09:15:29;14.0;;;11.0;;
22675;SDS011;12521;43.310;21.876;2023-09-18T09:20:22;14.0;;;11.0;;
22675;SDS011;12521;43.310;21.876;2023-09-18T09:24:59;13.0;;;11.0;;
22675;SDS011;12521;43.310;21.876;2023-09-18T09:29:36;13.0;;;11.0;;
22675;SDS011;12521;43.310;21.876;2023-09-18T09:34:25;12.0;;;10.0;;
22675;SDS011;12521;43.310;21.876;2023-09-18T09:39:04;12.0;;;10.0;;
22675;SDS011;12521;43.310;21.876;2023-09-18T09:43:42;12.0;;;10.0;;
22675;SDS011;12521;43.310;21.876;2023-09-18T09:48:21;12.0;;;10.0;;
22675;SDS011;12521;43.310;21.876;2023-09-18T09:52:58;12.0;;;10.0;;
22675;SDS011;12521;43.310;21.876;2023-09-18T09:57:47;12.0;;;10.0;;
22675;SDS011;12521;43.310;21.876;2023-09-18T10:02:35;11.0;;;10.0;;
22675;SDS011;12521;43.310;21.876;2023-09-18T10:07:13;11.0;;;10.0;;
22675;SDS011;12521;43.310;21.876;2023-09-18T10:11:58;11.0;;;10.0;;
22675;SDS011;12521;43.310;21.876;2023-09-18T10:16:55;11.0;;;10.0;;
22675;SDS011;12521;43.310;21.876;2023-09-18T10:22:03;11.0;;;10.0;;
22675;SDS011;12521;43.310;21.876;2023-09-18T10:27:12;11.0;;;10.0;;
22675;SDS011;12521;43.310;21.876;2023-09-18T10:31:52;12.0;;;10.0;;
22675;SDS011;12521;43.310;21.876;2023-09-18T10:36:31;12.0;;;10.0;;
22675;SDS011;12521;43.310;21.876;2023-09-18T10:41:13;12.0;;;10.0;;
22675;SDS011;12521;43.310;21.876;2023-09-18T10:45:52;12.0;;;9.0;;
22675;SDS011;12521;43.310;21.876;2023-09-18T10:50:30;12.0;;;9.0;;
22675;SDS011;12521;43.310;21.876;2023-09-18T10:55:07;12.0;;;9.0;;
22675;SDS011;12521;43.310;21.876;2023-09-18T10:59:54;12.0;;;9.0;;
22675;SDS011;12521;43.310;21.876;2023-09-18T11:04:31;13.0;;;9.0;;
22675;SDS011;12521;43.310;21.876;2023-09-18T11:09:09;13.0;;;9.0;;
22675;SDS011;12521;43.310;21.876;2023-09-18T11:13:56;12.0;;;9.0;;
22675;SDS011;12521;43.310;21.876;2023-09-18T11:18:32;12.0;;;9.0;;
22675;SDS011;12521;43.310;21.876;2023-09-18T11:23:17;10.0;;;9.0;;
22675;SDS011;12521;43.310;21.876;2023-09-18T11:27:54;10.0;;;9.0;;
22675;SDS011;12521;43.310;21.876;2023-09-18T11:32:40;10.0;;;8.0;;
22675;SDS011;12521;43.310;21.876;2023-09-18T11:37:20;10.0;;;8.0;;
22675;SDS011;12521;43.310;21.876;2023-09-18T11:42:07;10.0;;;8.0;;
22675;SDS011;12521;43.310;21.876;2023-09-18T11:46:53;10.0;;;8.0;;
22675;SDS011;12521;43.310;21.876;2023-09-18T11:51:30;12.0;;;8.0;;
22675;SDS011;12521;43.310;21.876;2023-09-18T11:56:11;12.0;;;8.0;;
22675;SDS011;12521;43.310;21.876;2023-09-18T12:00:50;12.0;;;8.0;;
22675;SDS011;12521;43.310;21.876;2023-09-18T12:05:29;13.0;;;9.0;;
22675;SDS011;12521;43.310;21.876;2023-09-18T12:10:09;13.0;;;9.0;;
22675;SDS011;12521;43.310;21.876;2023-09-18T12:14:52;10.0;;;8.0;;
22675;SDS011;12521;43.310;21.876;2023-09-18T12:19:29;10.0;;;8.0;;
22675;SDS011;12521;43.310;21.876;2023-09-18T12:24:13;8.0;;;8.0;;
22675;SDS011;12521;43.310;21.876;2023-09-18T12:28:59;8.0;;;8.0;;
22675;SDS011;12521;43.310;21.876;2023-09-18T12:33:37;8.0;;;7.0;;
22675;SDS011;12521;43.310;21.876;2023-09-18T12:38:20;8.0;;;7.0;;
22675;SDS011;12521;43.310;21.876;2023-09-18T12:42:58;8.0;;;6.0;;
22675;SDS011;12521;43.310;21.876;2023-09-18T12:47:38;8.0;;;6.0;;
22675;SDS011;12521;43.310;21.876;2023-09-18T12:52:22;8.0;;;6.0;;
22675;SDS011;12521;43.310;21.876;2023-09-18T12:56:58;8.0;;;6.0;;
22675;SDS011;12521;43.310;21.876;2023-09-18T13:01:35;9.0;;;7.0;;
22675;SDS011;12521;43.310;21.876;2023-09-18T13:06:17;9.0;;;7.0;;
22675;SDS011;12521;43.310;21.876;2023-09-18T13:10:55;9.0;;;7.0;;
22675;SDS011;12521;43.310;21.876;2023-09-18T13:15:32;8.0;;;7.0;;
22675;SDS011;12521;43.310;21.876;2023-09-18T13:20:13;8.0;;;7.0;;
22675;SDS011;12521;43.310;21.876;2023-09-18T13:25:01;8.0;;;7.0;;
22675;SDS011;12521;43.310;21.876;2023-09-18T13:29:37;8.0;;;7.0;;
22675;SDS011;12521;43.310;21.876;2023-09-18T13:34:13;8.0;;;7.0;;
22675;SDS011;12521;43.310;21.876;2023-09-18T13:38:49;8.0;;;7.0;;
22675;SDS011;12521;43.310;21.876;2023-09-18T13:43:26;7.0;;;7.0;;
22675;SDS011;12521;43.310;21.876;2023-09-18T13:48:03;7.0;;;7.0;;
22675;SDS011;12521;43.310;21.876;2023-09-18T13:52:42;7.0;;;6.0;;
22675;SDS011;12521;43.310;21.876;2023-09-18T13:57:18;7.0;;;6.0;;
22675;SDS011;12521;43.310;21.876;2023-09-18T14:01:57;7.0;;;6.0;;
22675;SDS011;12521;43.310;21.876;2023-09-18T14:06:33;7.0;;;6.0;;
22675;SDS011;12521;43.310;21.876;2023-09-18T14:11:09;7.0;;;6.0;;
22675;SDS011;12521;43.310;21.876;2023-09-18T14:15:46;8.0;;;6.0;;
22675;SDS011;12521;43.310;21.876;2023-09-18T14:20:22;8.0;;;6.0;;
22675;SDS011;12521;43.310;21.876;2023-09-18T14:24:59;9.0;;;6.0;;
22675;SDS011;12521;43.310;21.876;2023-09-18T14:29:35;9.0;;;6.0;;
22675;SDS011;12521;43.310;21.876;2023-09-18T14:34:12;10.0;;;7.0;;
22675;SDS011;12521;43.310;21.876;2023-09-18T14:38:49;10.0;;;7.0;;
22675;SDS011;12521;43.310;21.876;2023-09-18T14:43:25;12.0;;;8.0;;
22675;SDS011;12521;43.310;21.876;2023-09-18T14:48:02;12.0;;;8.0;;
22675;SDS011;12521;43.310;21.876;2023-09-18T14:52:41;10.0;;;8.0;;
22675;SDS011;12521;43.310;21.876;2023-09-18T14:57:18;10.0;;;8.0;;
22675;SDS011;12521;43.310;21.876;2023-09-18T15:01:54;9.0;;;7.0;;
22675;SDS011;12521;43.310;21.876;2023-09-18T15:06:31;9.0;;;7.0;;
22675;SDS011;12521;43.310;21.876;2023-09-18T15:11:08;9.0;;;7.0;;
22675;SDS011;12521;43.310;21.876;2023-09-18T15:15:46;10.0;;;8.0;;
22675;SDS011;12521;43.310;21.876;2023-09-18T15:20:23;10.0;;;8.0;;
22675;SDS011;12521;43.310;21.876;2023-09-18T15:25:00;12.0;;;9.0;;
22675;SDS011;12521;43.310;21.876;2023-09-18T15:29:37;12.0;;;9.0;;
22675;SDS011;12521;43.310;21.876;2023-09-18T15:34:13;10.0;;;8.0;;
22675;SDS011;12521;43.310;21.876;2023-09-18T15:38:50;10.0;;;8.0;;
22675;SDS011;12521;43.310;21.876;2023-09-18T15:43:27;8.0;;;6.0;;
22675;SDS011;12521;43.310;21.876;2023-09-18T15:48:05;8.0;;;6.0;;
22675;SDS011;12521;43.310;21.876;2023-09-18T15:52:44;8.0;;;6.0;;
22675;SDS011;12521;43.310;21.876;2023-09-18T15:57:21;8.0;;;6.0;;
22675;SDS011;12521;43.310;21.876;2023-09-18T16:01:58;7.0;;;7.0;;
22675;SDS011;12521;43.310;21.876;2023-09-18T16:06:34;7.0;;;7.0;;
22675;SDS011;12521;43.310;21.876;2023-09-18T16:11:11;7.0;;;7.0;;
22675;SDS011;12521;43.310;21.876;2023-09-18T16:15:48;8.0;;;6.0;;
22675;SDS011;12521;43.310;21.876;2023-09-18T16:20:24;8.0;;;6.0;;
22675;SDS011;12521;43.310;21.876;2023-09-18T16:25:00;9.0;;;6.0;;
22675;SDS011;12521;43.310;21.876;2023-09-18T16:29:37;9.0;;;6.0;;
22675;SDS011;12521;43.310;21.876;2023-09-18T16:34:14;8.0;;;6.0;;
22675;SDS011;12521;43.310;21.876;2023-09-18T16:38:51;8.0;;;6.0;;
22675;SDS011;12521;43.310;21.876;2023-09-18T16:43:27;7.0;;;7.0;;
22675;SDS011;12521;43.310;21.876;2023-09-18T16:48:04;7.0;;;7.0;;
22675;SDS011;12521;43.310;21.876;2023-09-18T16:52:43;8.0;;;6.0;;
22675;SDS011;12521;43.310;21.876;2023-09-18T16:57:19;8.0;;;6.0;;
22675;SDS011;12521;43.310;21.876;2023-09-18T17:01:56;10.0;;;6.0;;
22675;SDS011;12521;43.310;21.876;2023-09-18T17:06:33;10.0;;;6.0;;
22675;SDS011;12521;43.310;21.876;2023-09-18T17:11:09;10.0;;;6.0;;
22675;SDS011;12521;43.310;21.876;2023-09-18T17:15:47;9.0;;;6.0;;
22675;SDS011;12521;43.310;21.876;2023-09-18T17:20:23;9.0;;;6.0;;
22675;SDS011;12521;43.310;21.876;2023-09-18T17:25:05;8.0;;;6.0;;
22675;SDS011;12521;43.310;21.876;2023-09-18T17:29:43;8.0;;;6.0;;
22675;SDS011;12521;43.310;21.876;2023-09-18T17:34:20;7.0;;;6.0;;
22675;SDS011;12521;43.310;21.876;2023-09-18T17:38:57;7.0;;;6.0;;
22675;SDS011;12521;43.310;21.876;2023-09-18T17:43:33;6.0;;;5.0;;
22675;SDS011;12521;43.310;21.876;2023-09-18T17:48:10;6.0;;;5.0;;
22675;SDS011;12521;43.310;21.876;2023-09-18T17:52:47;8.0;;;6.0;;
22675;SDS011;12521;43.310;21.876;2023-09-18T17:57:23;8.0;;;6.0;;
22675;SDS011;12521;43.310;21.876;2023-09-18T18:02:00;9.0;;;7.0;;
22675;SDS011;12521;43.310;21.876;2023-09-18T18:06:37;9.0;;;7.0;;
22675;SDS011;12521;43.310;21.876;2023-09-18T18:11:13;9.0;;;7.0;;
22675;SDS011;12521;43.310;21.876;2023-09-18T18:15:50;8.0;;;6.0;;
22675;SDS011;12521;43.310;21.876;2023-09-18T18:20:26;8.0;;;6.0;;
22675;SDS011;12521;43.310;21.876;2023-09-18T18:25:04;7.0;;;6.0;;
22675;SDS011;12521;43.310;21.876;2023-09-18T18:29:43;7.0;;;6.0;;
22675;SDS011;12521;43.310;21.876;2023-09-18T18:34:20;7.0;;;6.0;;
22675;SDS011;12521;43.310;21.876;2023-09-18T18:38:57;7.0;;;6.0;;
22675;SDS011;12521;43.310;21.876;2023-09-18T18:43:35;7.0;;;6.0;;
22675;SDS011;12521;43.310;21.876;2023-09-18T18:48:11;7.0;;;6.0;;
22675;SDS011;12521;43.310;21.876;2023-09-18T18:52:47;7.0;;;6.0;;
22675;SDS011;12521;43.310;21.876;2023-09-18T18:57:23;7.0;;;6.0;;
22675;SDS011;12521;43.310;21.876;2023-09-18T19:02:00;7.0;;;5.0;;
22675;SDS011;12521;43.310;21.876;2023-09-18T19:06:36;7.0;;;5.0;;
22675;SDS011;12521;43.310;21.876;2023-09-18T19:11:12;7.0;;;5.0;;
22675;SDS011;12521;43.310;21.876;2023-09-18T19:15:51;6.0;;;5.0;;
22675;SDS011;12521;43.310;21.876;2023-09-18T19:20:31;6.0;;;5.0;;
22675;SDS011;12521;43.310;21.876;2023-09-18T19:25:08;6.0;;;5.0;;
22675;SDS011;12521;43.310;21.876;2023-09-18T19:29:45;6.0;;;5.0;;
22675;SDS011;12521;43.310;21.876;2023-09-18T19:34:24;6.0;;;5.0;;
22675;SDS011;12521;43.310;21.876;2023-09-18T19:39:01;6.0;;;5.0;;
22675;SDS011;12521;43.310;21.876;2023-09-18T19:43:38;6.0;;;5.0;;
22675;SDS011;12521;43.310;21.876;2023-09-18T19:48:14;6.0;;;5.0;;
22675;SDS011;12521;43.310;21.876;2023-09-18T19:52:51;6.0;;;5.0;;
22675;SDS011;12521;43.310;21.876;2023-09-18T19:57:28;6.0;;;5.0;;
22675;SDS011;12521;43.310;21.876;2023-09-18T20:02:06;7.0;;;5.0;;
22675;SDS011;12521;43.310;21.876;2023-09-18T20:06:43;7.0;;;5.0;;
22675;SDS011;12521;43.310;21.876;2023-09-18T20:11:19;7.0;;;5.0;;
22675;SDS011;12521;43.310;21.876;2023-09-18T20:15:56;7.0;;;5.0;;
22675;SDS011;12521;43.310;21.876;2023-09-18T20:20:32;7.0;;;5.0;;
22675;SDS011;12521;43.310;21.876;2023-09-18T20:25:09;7.0;;;5.0;;
22675;SDS011;12521;43.310;21.876;2023-09-18T20:29:46;7.0;;;5.0;;
22675;SDS011;12521;43.310;21.876;2023-09-18T20:34:23;7.0;;;5.0;;
22675;SDS011;12521;43.310;21.876;2023-09-18T20:39:00;7.0;;;5.0;;
22675;SDS011;12521;43.310;21.876;2023-09-18T20:43:37;7.0;;;5.0;;
22675;SDS011;12521;43.310;21.876;2023-09-18T20:48:14;7.0;;;5.0;;
22675;SDS011;12521;43.310;21.876;2023-09-18T20:52:50;6.0;;;5.0;;
22675;SDS011;12521;43.310;21.876;2023-09-18T20:57:27;6.0;;;5.0;;
22675;SDS011;12521;43.310;21.876;2023-09-18T21:02:04;6.0;;;5.0;;
22675;SDS011;12521;43.310;21.876;2023-09-18T21:06:40;6.0;;;5.0;;
22675;SDS011;12521;43.310;21.876;2023-09-18T21:11:17;6.0;;;5.0;;
22675;SDS011;12521;43.310;21.876;2023-09-18T21:15:53;7.0;;;5.0;;
22675;SDS011;12521;43.310;21.876;2023-09-18T21:20:30;7.0;;;5.0;;
22675;SDS011;12521;43.310;21.876;2023-09-18T21:25:08;8.0;;;5.0;;
22675;SDS011;12521;43.310;21.876;2023-09-18T21:29:45;8.0;;;5.0;;
22675;SDS011;12521;43.310;21.876;2023-09-18T21:34:21;7.0;;;4.0;;
22675;SDS011;12521;43.310;21.876;2023-09-18T21:38:57;7.0;;;4.0;;
22675;SDS011;12521;43.310;21.876;2023-09-18T21:43:33;6.0;;;4.0;;
22675;SDS011;12521;43.310;21.876;2023-09-18T21:48:10;6.0;;;4.0;;
22675;SDS011;12521;43.310;21.876;2023-09-18T21:52:46;9.0;;;5.0;;
22675;SDS011;12521;43.310;21.876;2023-09-18T21:57:24;9.0;;;5.0;;
22675;SDS011;12521;43.310;21.876;2023-09-18T22:02:00;12.0;;;6.0;;
22675;SDS011;12521;43.310;21.876;2023-09-18T22:06:36;12.0;;;6.0;;
22675;SDS011;12521;43.310;21.876;2023-09-18T22:11:14;12.0;;;6.0;;
22675;SDS011;12521;43.310;21.876;2023-09-18T22:15:51;10.0;;;6.0;;
22675;SDS011;12521;43.310;21.876;2023-09-18T22:20:27;10.0;;;6.0;;
22675;SDS011;12521;43.310;21.876;2023-09-18T22:25:05;8.0;;;6.0;;
22675;SDS011;12521;43.310;21.876;2023-09-18T22:29:44;8.0;;;6.0;;
22675;SDS011;12521;43.310;21.876;2023-09-18T22:34:21;9.0;;;6.0;;
22675;SDS011;12521;43.310;21.876;2023-09-18T22:57:58;10.0;;;6.0;;
22675;SDS011;12521;43.310;21.876;2023-09-18T23:02:39;9.0;;;6.0;;
22675;SDS011;12521;43.310;21.876;2023-09-18T23:07:19;9.0;;;6.0;;
22675;SDS011;12521;43.310;21.876;2023-09-18T23:11:55;9.0;;;6.0;;
22675;SDS011;12521;43.310;21.876;2023-09-18T23:16:33;10.0;;;6.0;;
22675;SDS011;12521;43.310;21.876;2023-09-18T23:21:09;10.0;;;6.0;;
22675;SDS011;12521;43.310;21.876;2023-09-18T23:25:45;10.0;;;6.0;;
22675;SDS011;12521;43.310;21.876;2023-09-18T23:30:22;10.0;;;6.0;;
22675;SDS011;12521;43.310;21.876;2023-09-18T23:34:58;8.0;;;6.0;;
22675;SDS011;12521;43.310;21.876;2023-09-18T23:39:35;8.0;;;6.0;;
22675;SDS011;12521;43.310;21.876;2023-09-18T23:44:11;6.0;;;6.0;;
22675;SDS011;12521;43.310;21.876;2023-09-18T23:48:48;6.0;;;6.0;;
22675;SDS011;12521;43.310;21.876;2023-09-18T23:53:24;6.0;;;6.0;;
22675;SDS011;12521;43.310;21.876;2023-09-18T23:58:01;6.0;;;6.0;;
